createdAt,value
2019-04-26T07:25:57.408Z,10.80
2019-04-26T07:28:37.524Z,13.80
2019-04-26T07:31:23.493Z,13.50
2019-04-26T07:34:45.523Z,13.60
2019-04-26T07:37:38.297Z,14.20
2019-04-26T07:40:40.288Z,14.70
2019-04-26T07:43:46.324Z,14.80
2019-04-26T07:46:42.344Z,15.50
2019-04-26T07:49:37.801Z,15.90
2019-04-26T07:52:32.280Z,16.10
2019-04-26T07:55:26.196Z,16.40
2019-04-26T07:58:33.249Z,16.30
2019-04-26T08:01:43.545Z,16.10
2019-04-26T08:04:20.118Z,15.90
2019-04-26T08:07:06.270Z,16.10
2019-04-26T08:09:59.854Z,16.50
2019-04-26T08:12:35.705Z,16.70
2019-04-26T08:15:24.957Z,16.90
2019-04-26T08:17:56.791Z,16.70
2019-04-26T08:20:57.930Z,18.20
2019-04-26T08:23:43.278Z,16.50
2019-04-26T08:26:17.534Z,16.10
2019-04-26T08:29:00.644Z,16.40
2019-04-26T08:31:37.231Z,16.70
2019-04-26T08:34:12.338Z,16.70
2019-04-26T08:36:48.065Z,16.80
2019-04-26T08:39:44.263Z,16.90
2019-04-26T08:42:11.808Z,17.10
2019-04-26T08:45:04.704Z,17.30
2019-04-26T08:47:40.275Z,17.20
2019-04-26T08:50:22.192Z,16.90
2019-04-26T08:52:57.893Z,16.90
2019-04-26T08:55:34.183Z,16.60
2019-04-26T08:58:08.473Z,16.50
2019-04-26T09:00:43.398Z,16.80
2019-04-26T09:03:32.479Z,16.70
2019-04-26T09:06:24.932Z,16.40
2019-04-26T09:09:19.667Z,16.00
2019-04-26T09:11:59.912Z,15.90
2019-04-26T09:14:39.966Z,16.10
2019-04-26T09:17:13.564Z,15.70
2019-04-26T09:19:53.741Z,15.70
2019-04-26T09:22:35.107Z,16.00
2019-04-26T09:25:24.726Z,15.90
2019-04-26T09:27:59.560Z,16.10
2019-04-26T09:30:44.873Z,16.80
2019-04-26T09:33:31.680Z,16.90
2019-04-26T09:36:13.768Z,17.20
2019-04-26T09:38:47.394Z,17.10
2019-04-26T09:41:26.602Z,17.20
2019-04-26T09:44:07.311Z,17.00
2019-04-26T09:46:54.173Z,16.80
2019-04-26T09:49:49.673Z,16.40
2019-04-26T09:52:29.018Z,16.30
2019-04-26T09:55:12.392Z,16.40
2019-04-26T09:57:46.477Z,16.80
2019-04-26T10:00:20.119Z,17.30
2019-04-26T10:03:05.610Z,17.40
2019-04-26T10:05:40.671Z,17.30
2019-04-26T10:08:29.418Z,17.70
2019-04-26T10:11:05.666Z,18.00
2019-04-26T10:13:42.302Z,18.10
2019-04-26T10:16:16.287Z,17.80
2019-04-26T10:18:59.389Z,17.70
2019-04-26T10:21:34.244Z,17.70
2019-04-26T10:24:16.953Z,17.60
2019-04-26T10:26:52.042Z,17.60
2019-04-26T10:29:26.761Z,17.50
2019-04-26T10:31:57.256Z,17.80
2019-04-26T10:37:25.678Z,17.70
2019-04-26T10:39:59.031Z,17.40
2019-04-26T10:42:32.358Z,17.70
2019-04-26T10:45:14.509Z,17.90
2019-04-26T10:47:53.443Z,17.30
2019-04-26T10:50:28.722Z,17.80
2019-04-26T10:53:12.690Z,17.60
2019-04-26T10:55:46.577Z,17.50
2019-04-26T10:58:40.902Z,17.70
2019-04-26T11:01:17.097Z,19.50
2019-04-26T11:03:48.428Z,18.40
2019-04-26T11:06:24.155Z,18.50
2019-04-26T11:08:51.697Z,18.40
2019-04-26T11:11:21.383Z,18.30
2019-04-26T11:13:57.505Z,18.30
2019-04-26T11:16:26.539Z,18.60
2019-04-26T11:19:01.263Z,18.70
2019-04-26T11:21:33.227Z,18.60
2019-04-26T11:24:19.577Z,18.90
2019-04-26T11:26:59.455Z,19.10
2019-04-26T11:29:30.239Z,18.80
2019-04-26T11:32:09.390Z,19.20
2019-04-26T11:34:46.099Z,19.50
2019-04-26T11:37:17.911Z,19.70
2019-04-26T11:40:00.796Z,19.00
2019-04-26T11:42:41.915Z,19.20
2019-04-26T11:45:14.628Z,19.40
2019-04-26T11:47:55.400Z,19.20
2019-04-26T11:50:19.947Z,19.30
2019-04-26T11:52:56.623Z,19.80
2019-04-26T11:55:36.211Z,19.30
2019-04-26T11:58:22.509Z,19.40
2019-04-26T12:00:57.279Z,19.10
2019-04-26T12:06:29.161Z,18.90
2019-04-26T12:09:01.588Z,19.20
2019-04-26T12:12:21.084Z,19.60
2019-04-26T12:14:53.265Z,19.70
2019-04-26T12:17:58.642Z,20.00
2019-04-26T12:20:26.927Z,20.00
2019-04-26T12:23:34.695Z,20.10
2019-04-26T12:26:07.948Z,20.40
2019-04-26T12:29:25.843Z,19.90
2019-04-26T12:31:53.752Z,19.70
2019-04-26T12:35:19.841Z,19.80
2019-04-26T12:37:54.701Z,19.10
2019-04-26T12:41:12.992Z,18.90
2019-04-26T12:43:47.580Z,19.00
2019-04-26T12:46:34.522Z,19.70
2019-04-26T12:49:12.649Z,19.00
2019-04-26T12:52:28.610Z,20.40
2019-04-26T12:55:00.041Z,20.70
2019-04-26T12:58:01.380Z,21.00
2019-04-26T13:00:53.254Z,20.90
2019-04-26T13:04:10.436Z,20.20
2019-04-26T13:06:44.227Z,20.10
2019-04-26T13:10:06.977Z,19.50
2019-04-26T13:12:52.536Z,19.60
2019-04-26T13:15:59.893Z,20.00
2019-04-26T13:18:32.920Z,20.30
2019-04-26T13:21:59.672Z,20.30
2019-04-26T13:24:30.125Z,20.10
2019-04-26T13:27:41.586Z,20.40
2019-04-26T13:30:12.444Z,20.50
2019-04-26T13:33:27.542Z,20.20
2019-04-26T13:36:15.318Z,19.90
2019-04-26T13:39:23.457Z,20.20
2019-04-26T13:42:09.512Z,20.10
2019-04-26T13:48:02.035Z,20.10
2019-04-26T13:51:31.183Z,20.30
2019-04-26T13:54:06.682Z,20.40
2019-04-26T13:57:15.306Z,20.10
2019-04-26T13:59:47.453Z,20.30
2019-04-26T14:03:00.281Z,20.10
2019-04-26T14:05:37.202Z,20.20
2019-04-26T14:08:38.411Z,20.20
2019-04-26T14:11:07.676Z,20.00
2019-04-26T14:14:12.470Z,19.60
2019-04-26T14:16:42.506Z,19.20
2019-04-26T14:19:49.443Z,19.30
2019-04-26T14:22:22.257Z,19.30
2019-04-26T14:25:41.389Z,19.20
2019-04-26T14:28:10.333Z,19.20
2019-04-26T14:31:31.333Z,17.90
2019-04-26T14:34:05.453Z,18.00
2019-04-26T14:36:46.056Z,18.80
2019-04-26T14:39:21.090Z,19.20
2019-04-26T14:41:58.419Z,19.50
2019-04-26T14:44:27.159Z,19.50
2019-04-26T14:47:47.254Z,19.50
2019-04-26T14:50:16.388Z,19.60
2019-04-26T14:53:13.695Z,19.30
2019-04-26T14:55:51.244Z,19.40
2019-04-26T14:59:16.296Z,19.10
2019-04-26T15:02:02.679Z,18.90
2019-04-26T15:04:58.147Z,18.60
2019-04-26T15:07:28.255Z,18.70
2019-04-26T15:09:58.055Z,18.90
2019-04-26T15:13:17.276Z,19.20
2019-04-26T15:15:44.482Z,19.60
2019-04-26T15:18:52.535Z,19.70
2019-04-26T15:21:27.360Z,19.80
2019-04-26T15:27:46.333Z,20.00
2019-04-26T15:31:05.683Z,19.80
2019-04-26T15:33:36.661Z,20.00
2019-04-26T15:43:27.232Z,20.00
2019-04-26T15:46:13.347Z,17.60
2019-04-26T15:49:37.408Z,19.30
2019-04-26T15:52:09.366Z,18.80
2019-04-26T15:55:18.731Z,18.40
2019-04-26T15:57:56.113Z,18.40
2019-04-26T16:00:58.801Z,18.30
2019-04-26T16:03:30.687Z,18.30
2019-04-26T16:06:41.981Z,18.60
2019-04-26T16:09:19.718Z,18.90
2019-04-26T16:12:33.524Z,19.20
2019-04-26T16:15:06.605Z,18.80
2019-04-26T16:18:10.580Z,18.40
2019-04-26T16:20:45.275Z,18.90
2019-04-26T16:23:55.289Z,19.30
2019-04-26T16:26:33.188Z,19.60
2019-04-26T16:29:58.300Z,19.80
2019-04-26T16:32:34.547Z,19.80
2019-04-26T16:35:22.417Z,19.40
2019-04-26T16:37:51.998Z,19.40
2019-04-26T16:40:55.276Z,18.90
2019-04-26T16:45:04.422Z,18.40
2019-04-26T16:46:02.124Z,18.00
2019-04-26T16:49:12.413Z,17.90
2019-04-26T16:51:46.622Z,17.80
2019-04-26T16:55:20.325Z,17.80
2019-04-26T16:57:55.006Z,17.80
2019-04-26T17:01:10.087Z,18.20
2019-04-26T17:03:45.129Z,18.50
2019-04-26T17:07:25.318Z,18.80
2019-04-26T17:09:59.596Z,18.80
2019-04-26T17:12:56.217Z,19.10
2019-04-26T17:15:30.318Z,19.20
2019-04-26T17:18:27.067Z,19.10
2019-04-26T17:21:06.265Z,19.10
2019-04-26T17:24:49.940Z,19.30
2019-04-26T17:27:25.290Z,19.60
2019-04-26T17:30:42.552Z,19.60
2019-04-26T17:33:24.142Z,19.40
2019-04-26T17:37:17.091Z,19.40
2019-04-26T17:39:25.826Z,19.30
2019-04-26T17:42:44.974Z,19.00
2019-04-26T17:48:49.066Z,19.40
2019-04-26T17:54:54.111Z,19.40
2019-04-26T18:00:46.582Z,19.60
2019-04-26T18:03:27.858Z,19.40
2019-04-26T18:06:30.087Z,19.30
2019-04-26T18:09:18.586Z,19.20
2019-04-26T18:14:55.843Z,19.20
2019-04-26T18:18:26.043Z,19.20
2019-04-26T18:21:07.300Z,18.90
2019-04-26T18:24:23.486Z,18.80
2019-04-26T18:26:59.346Z,18.70
2019-04-26T18:30:20.514Z,19.40
2019-04-26T18:32:49.752Z,18.50
2019-04-26T18:36:06.517Z,18.40
2019-04-26T18:38:43.144Z,18.40
2019-04-26T18:42:02.874Z,18.30
2019-04-26T18:44:43.320Z,18.20
2019-04-26T18:53:58.143Z,18.00
2019-04-26T18:56:33.721Z,17.90
2019-04-26T18:59:28.064Z,16.90
2019-04-26T19:02:18.611Z,19.00
2019-04-26T19:08:45.882Z,17.60
2019-04-26T19:11:22.488Z,17.30
2019-04-26T19:17:11.851Z,17.40
2019-04-26T19:22:53.338Z,17.00
2019-04-26T19:28:29.308Z,16.80
2019-04-26T19:34:01.849Z,17.00
2019-04-26T19:36:36.782Z,17.10
2019-04-26T19:39:28.697Z,17.30
2019-04-26T19:44:49.460Z,17.40
2019-04-26T19:50:52.687Z,17.30
2019-04-26T19:56:35.718Z,17.10
2019-04-26T19:59:12.084Z,17.00
2019-04-26T20:01:48.617Z,16.90
2019-04-26T20:07:17.694Z,17.10
2019-04-26T20:12:52.748Z,16.50
2019-04-26T20:15:57.391Z,16.60
2019-04-26T20:18:32.751Z,16.60
2019-04-26T20:24:02.790Z,15.30
2019-04-26T20:27:27.815Z,15.30
2019-04-26T20:29:17.388Z,15.50
2019-04-26T20:34:56.138Z,15.70
2019-04-26T20:40:25.367Z,16.20
2019-04-26T20:45:50.616Z,16.20
2019-04-26T20:48:15.317Z,16.10
2019-04-26T20:51:11.016Z,18.00
2019-04-26T20:53:43.654Z,16.00
2019-04-26T20:56:18.691Z,15.90
2019-04-26T20:58:53.812Z,16.00
2019-04-26T21:01:27.834Z,16.10
2019-04-26T21:04:38.107Z,16.10
2019-04-26T21:07:14.209Z,16.10
2019-04-26T21:09:45.540Z,16.10
2019-04-26T21:12:24.625Z,16.00
2019-04-26T21:14:57.080Z,16.00
2019-04-26T21:20:15.316Z,14.80
2019-04-26T21:22:48.431Z,16.00
2019-04-26T21:25:27.656Z,16.00
2019-04-26T21:28:14.441Z,16.00
2019-04-26T21:31:26.226Z,18.50
2019-04-26T21:34:00.735Z,15.80
2019-04-26T21:37:11.421Z,15.70
2019-04-26T21:39:47.654Z,15.60
2019-04-26T21:42:20.845Z,15.60
2019-04-26T21:44:53.234Z,14.10
2019-04-26T21:47:27.598Z,15.60
2019-04-26T21:52:48.280Z,15.70
2019-04-26T21:58:24.949Z,15.70
2019-04-26T22:03:40.113Z,15.70
2019-04-26T22:06:20.003Z,15.80
2019-04-26T22:08:58.877Z,15.70
2019-04-26T22:11:31.224Z,15.70
2019-04-26T22:14:13.154Z,15.70
2019-04-26T22:19:44.230Z,15.40
2019-04-26T22:25:19.286Z,15.70
2019-04-26T22:27:54.016Z,15.60
2019-04-26T22:40:48.465Z,15.20
2019-04-26T22:43:28.649Z,15.10
2019-04-26T22:46:49.629Z,15.10
2019-04-26T22:49:25.141Z,15.00
2019-04-26T22:52:06.320Z,13.60
2019-04-26T22:54:44.690Z,15.00
2019-04-26T23:00:20.014Z,14.70
2019-04-26T23:09:33.446Z,14.50
2019-04-26T23:12:27.986Z,14.30
2019-04-26T23:18:16.041Z,14.30
2019-04-26T23:20:49.304Z,14.30
2019-04-26T23:23:26.284Z,14.30
2019-04-26T23:25:57.337Z,14.20
2019-04-26T23:28:34.368Z,14.20
2019-04-26T23:31:07.945Z,14.20
2019-04-26T23:33:38.484Z,14.10
2019-04-26T23:36:13.639Z,13.80
2019-04-26T23:38:53.142Z,14.20
2019-04-26T23:44:23.147Z,14.20
2019-04-26T23:46:54.974Z,13.90
2019-04-26T23:49:33.452Z,12.80
2019-04-26T23:52:07.908Z,13.80
2019-04-26T23:57:36.317Z,13.90
